Time;durP1;ratioP1;P1;durP2;ratioP2;P2;SDS_P1;SDS_P2;PMS_P1;PMS_P2;Temp;Humidity;BMP_temperature;BMP_pressure;BME280_temperature;BME280_humidity;BME280_pressure;Samples;Min_cycle;Max_cycle;Signal;HPM_P1;HPM_P2
2023/10/24 00:01:08;;;;;;;4.13;0.70;;;19.80;93.00;;;;;;7399844;19;19926;-74
2023/10/24 00:03:34;;;;;;;3.78;0.80;;;19.90;92.60;;;;;;7401457;19;20315;-73
2023/10/24 00:06:00;;;;;;;3.85;0.75;;;19.90;92.40;;;;;;7401703;19;20338;-74
2023/10/24 00:08:26;;;;;;;3.92;0.70;;;20.00;91.80;;;;;;7395738;19;20362;-74
2023/10/24 00:11:02;;;;;;;2.70;0.70;;;19.90;91.90;;;;;;7396310;19;19914;-74
2023/10/24 00:13:28;;;;;;;3.97;0.77;;;19.80;93.60;;;;;;7411846;19;19910;-73
2023/10/24 00:15:56;;;;;;;4.85;0.82;;;19.50;95.50;;;;;;7411836;19;20277;-73
2023/10/24 00:18:22;;;;;;;5.22;1.23;;;19.40;99.70;;;;;;7412155;19;19929;-72
2023/10/24 00:20:47;;;;;;;5.03;1.20;;;19.20;99.90;;;;;;7412506;19;19922;-73
2023/10/24 00:23:13;;;;;;;2.90;0.82;;;18.90;99.90;;;;;;7411630;19;19918;-73
2023/10/24 00:25:39;;;;;;;4.95;1.45;;;18.80;99.90;;;;;;7412769;19;19915;-73
2023/10/24 00:28:06;;;;;;;5.95;1.08;;;18.70;99.90;;;;;;7412193;19;19986;-73
2023/10/24 00:30:32;;;;;;;3.75;1.02;;;18.70;99.90;;;;;;7416057;19;19923;-75
2023/10/24 00:32:58;;;;;;;5.82;1.58;;;18.60;99.90;;;;;;7412215;19;19946;-74
2023/10/24 00:35:24;;;;;;;4.00;1.00;;;18.60;99.90;;;;;;7412968;19;19922;-73
2023/10/24 00:37:50;;;;;;;4.55;1.25;;;18.60;99.90;;;;;;7412969;19;19977;-73
2023/10/24 00:40:18;;;;;;;7.68;1.50;;;18.60;99.90;;;;;;7413989;19;19915;-73
2023/10/24 00:42:45;;;;;;;6.18;1.65;;;18.50;99.90;;;;;;7414898;19;19914;-74
2023/10/24 00:45:11;;;;;;;7.93;2.10;;;18.50;99.90;;;;;;7409773;19;19942;-74
2023/10/24 00:47:38;;;;;;;9.13;2.10;;;18.50;99.90;;;;;;7413502;19;20244;-74
2023/10/24 00:50:07;;;;;;;5.90;1.80;;;18.40;99.90;;;;;;7411877;19;20338;-73
2023/10/24 00:52:36;;;;;;;5.55;1.73;;;18.40;99.90;;;;;;7411192;19;19923;-73
2023/10/24 00:55:03;;;;;;;4.85;1.73;;;18.50;99.90;;;;;;7414595;19;19990;-74
2023/10/24 00:57:29;;;;;;;7.35;1.70;;;18.50;99.90;;;;;;7415311;19;19922;-74
2023/10/24 00:59:55;;;;;;;4.68;1.50;;;18.40;99.90;;;;;;7413424;19;19915;-74
2023/10/24 01:02:21;;;;;;;7.05;1.63;;;18.40;99.90;;;;;;7410573;19;19938;-74
2023/10/24 01:04:50;;;;;;;7.70;1.95;;;18.50;99.90;;;;;;7391531;19;20020;-73
2023/10/24 01:07:16;;;;;;;5.88;1.52;;;18.50;99.90;;;;;;7411543;19;19925;-74
2023/10/24 01:09:42;;;;;;;8.10;1.58;;;18.40;99.90;;;;;;7412544;19;20349;-73
2023/10/24 01:12:08;;;;;;;5.88;1.25;;;18.40;99.90;;;;;;7413198;19;20408;-73
2023/10/24 01:14:34;;;;;;;6.13;1.02;;;18.40;99.90;;;;;;7411294;19;20342;-73
2023/10/24 01:17:08;;;;;;;3.53;1.10;;;18.50;99.90;;;;;;7411389;19;19911;-73
2023/10/24 01:19:34;;;;;;;4.10;0.77;;;18.50;99.90;;;;;;7404740;19;19915;-73
2023/10/24 01:21:59;;;;;;;6.03;0.73;;;18.60;99.90;;;;;;7410547;19;19922;-74
2023/10/24 01:24:27;;;;;;;2.20;0.55;;;18.60;99.90;;;;;;7404395;19;19918;-74
2023/10/24 01:26:55;;;;;;;3.20;0.90;;;18.70;99.90;;;;;;7407826;19;19918;-74
2023/10/24 01:29:21;;;;;;;2.72;0.65;;;18.60;99.90;;;;;;7405202;19;20630;-73
2023/10/24 01:31:47;;;;;;;3.50;1.20;;;18.60;99.90;;;;;;7405204;19;19914;-74
2023/10/24 01:34:13;;;;;;;3.22;0.80;;;18.50;99.90;;;;;;7403133;19;19914;-74
2023/10/24 01:36:39;;;;;;;4.97;0.90;;;18.30;99.90;;;;;;7403954;19;20350;-74
2023/10/24 01:39:04;;;;;;;3.45;0.90;;;18.10;99.90;;;;;;7404935;19;19939;-74
2023/10/24 01:41:30;;;;;;;2.67;0.63;;;17.90;99.90;;;;;;7405604;19;19920;-72
2023/10/24 01:43:57;;;;;;;5.20;0.90;;;17.60;99.90;;;;;;7407471;19;19948;-75
2023/10/24 01:46:23;;;;;;;3.72;1.08;;;16.80;99.90;;;;;;7404752;19;19922;-75
2023/10/24 01:48:49;;;;;;;4.20;1.00;;;16.10;99.90;;;;;;7409181;19;19925;-74
2023/10/24 01:51:15;;;;;;;3.20;0.80;;;15.90;99.90;;;;;;7406857;19;20301;-75
2023/10/24 01:53:42;;;;;;;4.28;0.80;;;15.70;99.90;;;;;;7404662;19;19915;-74
2023/10/24 01:56:11;;;;;;;3.70;0.85;;;15.60;99.90;;;;;;7404424;19;19907;-73
2023/10/24 01:58:36;;;;;;;1.35;0.60;;;15.60;99.90;;;;;;7404686;19;19922;-74
2023/10/24 02:01:02;;;;;;;3.08;0.60;;;15.70;99.90;;;;;;7405420;19;19919;-73
2023/10/24 02:03:28;;;;;;;3.30;0.60;;;15.70;99.90;;;;;;7401897;19;19922;-74
2023/10/24 02:05:54;;;;;;;5.05;1.05;;;15.70;99.90;;;;;;7403047;19;19918;-73
2023/10/24 02:08:20;;;;;;;2.78;0.90;;;15.80;99.90;;;;;;7402090;19;20068;-72
2023/10/24 02:10:45;;;;;;;2.90;0.70;;;15.80;99.90;;;;;;7405752;19;19950;-72
2023/10/24 02:13:11;;;;;;;2.65;0.60;;;15.80;99.90;;;;;;7401878;19;19939;-73
2023/10/24 02:15:37;;;;;;;2.35;0.65;;;15.80;99.90;;;;;;7405013;19;20823;-73
2023/10/24 02:18:03;;;;;;;2.85;0.70;;;15.80;99.90;;;;;;7401910;19;19918;-72
2023/10/24 02:20:29;;;;;;;3.67;0.70;;;15.90;99.90;;;;;;7403963;19;19919;-71
2023/10/24 02:22:54;;;;;;;1.58;0.40;;;15.90;99.90;;;;;;7403407;19;21527;-72
2023/10/24 02:25:20;;;;;;;2.20;0.60;;;15.80;99.90;;;;;;7403574;19;20306;-71
2023/10/24 02:27:46;;;;;;;1.58;0.55;;;15.80;99.90;;;;;;7403528;19;19922;-71
2023/10/24 02:30:12;;;;;;;3.75;0.50;;;15.80;99.90;;;;;;7401832;19;19935;-71
2023/10/24 02:32:37;;;;;;;3.80;0.50;;;15.80;99.90;;;;;;7402993;19;19970;-72
2023/10/24 02:35:04;;;;;;;4.68;0.75;;;15.80;99.90;;;;;;7403138;19;19921;-71
2023/10/24 02:37:29;;;;;;;2.38;0.73;;;15.90;99.90;;;;;;7403911;19;19982;-72
2023/10/24 02:39:55;;;;;;;3.03;0.65;;;15.90;99.90;;;;;;7403282;19;19926;-72
2023/10/24 02:42:21;;;;;;;2.80;0.68;;;15.90;99.90;;;;;;7401327;19;19922;-72
2023/10/24 02:44:50;;;;;;;3.60;0.70;;;15.90;99.90;;;;;;7402698;19;19918;-72
2023/10/24 02:47:16;;;;;;;4.07;0.82;;;15.90;99.90;;;;;;7403944;19;19927;-71
2023/10/24 02:49:42;;;;;;;3.15;0.65;;;15.90;99.90;;;;;;7403401;19;19922;-72
2023/10/24 02:52:07;;;;;;;3.40;0.73;;;15.90;99.90;;;;;;7399165;19;19915;-73
2023/10/24 02:54:34;;;;;;;3.55;0.63;;;15.90;99.90;;;;;;7403443;19;19918;-72
2023/10/24 02:56:59;;;;;;;2.83;1.10;;;15.90;99.90;;;;;;7401807;19;19929;-72
2023/10/24 02:59:25;;;;;;;3.83;0.88;;;15.90;99.90;;;;;;7399845;19;20010;-72
2023/10/24 03:01:51;;;;;;;2.25;0.75;;;15.90;99.90;;;;;;7402031;19;19921;-73
2023/10/24 03:04:17;;;;;;;3.15;0.68;;;16.00;99.90;;;;;;7401406;19;20342;-72
2023/10/24 03:06:42;;;;;;;2.70;0.63;;;15.90;99.90;;;;;;7403222;19;20360;-72
2023/10/24 03:09:09;;;;;;;2.65;0.52;;;16.00;99.90;;;;;;7398848;19;19951;-74
2023/10/24 03:11:35;;;;;;;3.55;0.60;;;16.00;99.90;;;;;;7402352;19;19922;-72
2023/10/24 03:14:01;;;;;;;2.33;1.00;;;16.00;99.90;;;;;;7402554;19;19919;-73
2023/10/24 03:16:27;;;;;;;2.05;0.60;;;16.10;99.90;;;;;;7399975;19;20830;-72
2023/10/24 03:18:53;;;;;;;3.17;0.60;;;16.10;99.90;;;;;;7404028;19;19925;-71
2023/10/24 03:21:19;;;;;;;3.78;0.77;;;16.10;99.90;;;;;;7401731;19;19911;-73
2023/10/24 03:23:45;;;;;;;3.00;0.82;;;16.10;99.90;;;;;;7401545;19;19923;-72
2023/10/24 03:26:12;;;;;;;3.63;0.63;;;16.00;99.90;;;;;;7401938;19;19934;-73
2023/10/24 03:28:38;;;;;;;1.58;0.50;;;16.00;99.90;;;;;;7402520;19;19939;-73
2023/10/24 03:31:08;;;;;;;3.42;0.65;;;16.00;99.90;;;;;;7402792;19;19922;-72
2023/10/24 03:33:34;;;;;;;3.88;0.80;;;16.00;99.90;;;;;;7401789;19;19949;-72
2023/10/24 03:36:00;;;;;;;1.58;0.57;;;16.00;99.90;;;;;;7401747;19;19914;-71
2023/10/24 03:38:27;;;;;;;3.40;0.55;;;16.00;99.90;;;;;;7403544;19;19919;-73
2023/10/24 03:40:54;;;;;;;2.85;0.80;;;16.30;99.90;;;;;;7404063;19;20302;-73
2023/10/24 03:43:20;;;;;;;2.25;0.60;;;16.30;99.90;;;;;;7402144;19;19914;-73
2023/10/24 03:45:46;;;;;;;2.42;0.60;;;16.40;99.90;;;;;;7403553;19;20302;-72
2023/10/24 03:48:12;;;;;;;2.97;0.50;;;16.50;99.90;;;;;;7400192;19;19943;-72
2023/10/24 03:50:53;;;;;;;2.17;0.55;;;16.60;99.90;;;;;;7399935;19;19919;-71
2023/10/24 03:53:19;;;;;;;3.58;0.70;;;16.90;99.90;;;;;;7399949;19;19988;-73
2023/10/24 03:55:54;;;;;;;2.70;0.90;;;16.80;99.90;;;;;;7404230;19;19946;-72
2023/10/24 03:58:20;;;;;;;3.00;0.77;;;16.80;99.90;;;;;;7402509;19;20375;-72
2023/10/24 04:00:46;;;;;;;4.18;1.10;;;17.00;99.90;;;;;;7401028;19;19919;-73
2023/10/24 04:03:12;;;;;;;2.03;0.70;;;17.10;99.90;;;;;;7402286;19;19940;-72
2023/10/24 04:05:38;;;;;;;2.53;0.57;;;17.10;99.90;;;;;;7402440;19;19928;-73
2023/10/24 04:08:04;;;;;;;2.78;0.60;;;17.30;99.90;;;;;;7399520;19;19954;-72
2023/10/24 04:10:32;;;;;;;2.75;0.57;;;17.40;99.90;;;;;;7401413;19;20396;-72
2023/10/24 04:12:57;;;;;;;3.28;0.93;;;17.50;99.90;;;;;;7395786;19;19947;-72
2023/10/24 04:15:23;;;;;;;2.17;0.70;;;17.50;99.90;;;;;;7399104;19;19942;-74
2023/10/24 04:17:49;;;;;;;2.38;0.85;;;17.50;99.90;;;;;;7402181;19;20264;-72
2023/10/24 04:20:15;;;;;;;1.27;0.50;;;17.40;99.90;;;;;;7401740;19;19919;-72
2023/10/24 04:22:41;;;;;;;2.53;0.85;;;17.40;99.90;;;;;;7401113;19;19926;-72
2023/10/24 04:25:07;;;;;;;1.55;0.57;;;17.30;99.90;;;;;;7398160;19;19922;-72
2023/10/24 04:27:33;;;;;;;3.17;0.80;;;17.20;99.90;;;;;;7379091;19;19930;-74
2023/10/24 04:29:59;;;;;;;5.38;0.93;;;17.20;99.90;;;;;;7400465;19;19918;-72
2023/10/24 04:32:25;;;;;;;4.82;0.90;;;17.20;99.90;;;;;;7400027;19;20263;-73
2023/10/24 04:34:51;;;;;;;3.45;0.82;;;17.10;99.90;;;;;;7404166;19;19922;-73
2023/10/24 04:37:18;;;;;;;2.08;0.70;;;17.20;99.90;;;;;;7395812;19;19930;-74
2023/10/24 04:39:44;;;;;;;3.20;0.77;;;17.20;99.90;;;;;;7402143;19;19914;-73
2023/10/24 04:42:11;;;;;;;3.05;0.80;;;17.20;99.90;;;;;;7397809;19;19911;-73
2023/10/24 04:44:37;;;;;;;;;;;17.20;99.90;;;;;;7404194;19;19926;-73
2023/10/24 04:47:03;;;;;;;2.35;0.52;;;17.20;99.90;;;;;;7395873;19;19918;-73
2023/10/24 04:49:29;;;;;;;2.38;0.60;;;17.20;99.90;;;;;;7399596;19;20326;-74
2023/10/24 04:51:54;;;;;;;2.20;0.60;;;17.30;99.90;;;;;;7399834;19;19942;-74
2023/10/24 04:54:20;;;;;;;1.95;0.50;;;17.30;99.90;;;;;;7397635;19;19931;-73
2023/10/24 04:56:46;;;;;;;3.72;1.10;;;17.40;99.90;;;;;;7399786;19;20430;-74
2023/10/24 04:59:13;;;;;;;2.47;0.77;;;17.30;99.90;;;;;;7397444;19;19922;-73
2023/10/24 05:01:39;;;;;;;2.80;0.68;;;17.20;99.90;;;;;;7406136;19;19918;-74
2023/10/24 05:04:06;;;;;;;2.28;0.65;;;17.20;99.90;;;;;;7404595;19;19925;-73
2023/10/24 05:06:33;;;;;;;5.50;0.70;;;17.30;99.90;;;;;;7406383;19;19939;-73
2023/10/24 05:08:59;;;;;;;;;;;17.30;99.90;;;;;;7406589;19;19919;-73
2023/10/24 05:11:25;;;;;;;1.83;0.52;;;17.30;99.90;;;;;;7407019;19;19957;-72
2023/10/24 05:13:51;;;;;;;2.03;0.65;;;17.20;99.90;;;;;;7406423;19;20033;-73
2023/10/24 05:16:17;;;;;;;2.20;0.50;;;17.20;99.90;;;;;;7403650;19;19984;-73
2023/10/24 05:18:43;;;;;;;2.42;0.70;;;17.20;99.90;;;;;;7406379;19;19919;-73
2023/10/24 05:21:08;;;;;;;2.20;0.65;;;17.10;99.90;;;;;;7405573;19;20367;-73
2023/10/24 05:23:34;;;;;;;1.95;0.82;;;17.00;99.90;;;;;;7407038;19;20248;-73
2023/10/24 05:26:00;;;;;;;2.80;1.20;;;17.00;99.90;;;;;;7408499;19;19914;-74
2023/10/24 05:28:26;;;;;;;2.33;0.77;;;17.10;99.90;;;;;;7404464;19;19915;-74
2023/10/24 05:30:52;;;;;;;3.40;1.00;;;17.10;99.90;;;;;;7403863;19;20340;-74
2023/10/24 05:33:18;;;;;;;1.55;0.55;;;17.10;99.90;;;;;;7402240;19;20774;-73
2023/10/24 05:35:48;;;;;;;3.55;1.08;;;17.10;99.90;;;;;;7403504;19;19934;-73
2023/10/24 05:38:13;;;;;;;3.03;1.00;;;17.10;99.90;;;;;;7405375;19;19926;-73
2023/10/24 05:40:40;;;;;;;2.60;0.70;;;17.10;99.90;;;;;;7400143;19;19922;-74
2023/10/24 05:43:06;;;;;;;3.80;1.20;;;17.10;99.90;;;;;;7402269;19;19990;-73
2023/10/24 05:45:32;;;;;;;2.80;0.82;;;17.00;99.90;;;;;;7404057;19;20718;-73
2023/10/24 05:47:58;;;;;;;3.22;1.10;;;16.90;99.90;;;;;;7380901;19;19923;-72
2023/10/24 05:50:24;;;;;;;8.68;3.30;;;16.90;99.90;;;;;;7401762;19;19935;-73
2023/10/24 05:52:50;;;;;;;2.92;0.60;;;16.90;99.90;;;;;;7404200;19;19922;-73
2023/10/24 05:55:17;;;;;;;3.90;1.50;;;16.80;99.90;;;;;;7401587;19;19914;-73
2023/10/24 05:57:42;;;;;;;;;;;16.70;99.90;;;;;;7407003;19;19942;-72
2023/10/24 06:00:09;;;;;;;3.25;1.00;;;16.70;99.90;;;;;;7402737;19;19923;-74
2023/10/24 06:02:35;;;;;;;;;;;16.70;99.90;;;;;;7404541;19;20244;-73
2023/10/24 06:05:02;;;;;;;4.00;1.30;;;16.70;99.90;;;;;;7403925;19;19939;-74
2023/10/24 06:07:29;;;;;;;3.28;1.10;;;16.60;99.90;;;;;;7382825;19;19927;-73
2023/10/24 06:09:54;;;;;;;;;;;16.50;99.90;;;;;;7407585;19;20334;-73
2023/10/24 06:12:20;;;;;;;5.18;1.77;;;16.40;99.90;;;;;;7382298;19;19925;-73
2023/10/24 06:14:46;;;;;;;5.35;1.50;;;16.40;99.90;;;;;;7403052;19;19918;-74
2023/10/24 06:17:17;;;;;;;5.82;1.58;;;16.40;99.90;;;;;;7401881;19;19919;-74
2023/10/24 06:19:45;;;;;;;3.40;1.33;;;16.50;99.90;;;;;;7404326;19;19925;-73
2023/10/24 06:22:11;;;;;;;4.97;1.63;;;16.50;99.90;;;;;;7403769;19;19925;-73
2023/10/24 06:24:36;;;;;;;4.68;1.90;;;16.50;99.90;;;;;;7403551;19;19921;-73
2023/10/24 06:27:02;;;;;;;6.95;1.50;;;16.50;99.90;;;;;;7404015;19;20339;-73
2023/10/24 06:29:32;;;;;;;4.10;1.60;;;16.40;99.90;;;;;;7404310;19;19974;-74
2023/10/24 06:31:58;;;;;;;5.60;1.30;;;16.50;99.90;;;;;;7403619;19;19925;-73
2023/10/24 06:34:23;;;;;;;4.30;1.65;;;16.50;99.90;;;;;;7401033;19;19914;-73
2023/10/24 06:36:49;;;;;;;5.40;1.70;;;16.50;99.90;;;;;;7400614;19;19915;-74
2023/10/24 06:39:15;;;;;;;5.38;1.80;;;16.50;99.90;;;;;;7400757;19;19932;-73
2023/10/24 06:41:41;;;;;;;5.20;1.80;;;16.40;99.90;;;;;;7403604;19;19921;-74
2023/10/24 06:44:07;;;;;;;7.38;1.90;;;16.40;99.90;;;;;;7401898;19;19918;-73
2023/10/24 06:46:33;;;;;;;5.13;1.67;;;16.40;99.90;;;;;;7403881;19;19939;-72
2023/10/24 06:48:59;;;;;;;7.07;1.60;;;16.30;99.90;;;;;;7401025;19;19991;-73
2023/10/24 06:51:25;;;;;;;3.90;1.48;;;16.40;99.90;;;;;;7380339;19;20410;-72
2023/10/24 06:53:50;;;;;;;3.85;1.80;;;16.40;99.90;;;;;;7398712;19;20330;-74
2023/10/24 06:56:16;;;;;;;4.47;1.50;;;16.40;99.90;;;;;;7401710;19;19936;-73
2023/10/24 06:58:42;;;;;;;3.55;1.20;;;16.50;99.90;;;;;;7400513;19;19934;-73
2023/10/24 07:01:08;;;;;;;4.28;1.10;;;16.60;99.90;;;;;;7393925;19;19926;-73
2023/10/24 07:03:33;;;;;;;3.58;1.20;;;16.60;99.90;;;;;;7391856;19;19947;-74
2023/10/24 07:05:59;;;;;;;5.90;1.42;;;16.60;99.90;;;;;;7400001;19;19973;-73
2023/10/24 07:08:26;;;;;;;3.97;1.20;;;16.60;99.90;;;;;;7392387;19;19914;-74
2023/10/24 07:10:52;;;;;;;;;;;16.60;99.90;;;;;;7399330;19;19923;-74
2023/10/24 07:13:18;;;;;;;3.63;1.20;;;16.70;99.90;;;;;;7390637;19;19939;-74
2023/10/24 07:15:44;;;;;;;2.75;1.00;;;16.70;99.90;;;;;;7403523;19;19958;-74
2023/10/24 07:18:11;;;;;;;3.30;1.30;;;16.60;99.90;;;;;;7398626;19;19918;-75
2023/10/24 07:20:38;;;;;;;2.15;0.70;;;16.70;99.90;;;;;;7402040;19;19929;-73
2023/10/24 07:23:04;;;;;;;;;;;16.80;99.90;;;;;;7398932;19;19913;-73
2023/10/24 07:25:30;;;;;;;2.58;0.80;;;16.80;99.90;;;;;;7402467;19;19978;-73
2023/10/24 07:27:58;;;;;;;2.25;0.65;;;16.80;99.90;;;;;;7385143;19;20752;-73
2023/10/24 07:30:24;;;;;;;2.75;1.10;;;16.80;99.90;;;;;;7396400;19;19918;-73
2023/10/24 07:32:53;;;;;;;5.63;1.35;;;16.80;99.90;;;;;;7396043;19;19918;-74
2023/10/24 07:35:23;;;;;;;2.20;0.80;;;16.90;99.90;;;;;;7398876;19;20335;-74
2023/10/24 07:37:49;;;;;;;3.20;0.98;;;16.90;99.90;;;;;;7403704;19;19990;-73
2023/10/24 07:40:15;;;;;;;4.03;0.98;;;16.80;99.90;;;;;;7402591;19;19964;-74
2023/10/24 07:42:41;;;;;;;2.15;0.95;;;16.90;99.90;;;;;;7400888;19;19918;-73
2023/10/24 07:45:07;;;;;;;2.63;0.95;;;16.90;99.90;;;;;;7400715;19;20341;-74
2023/10/24 07:47:33;;;;;;;4.78;1.10;;;16.90;99.90;;;;;;7403733;19;19921;-74
2023/10/24 07:49:59;;;;;;;4.00;1.17;;;16.80;99.90;;;;;;7405033;19;19970;-74
2023/10/24 07:52:25;;;;;;;3.60;1.10;;;16.90;99.90;;;;;;7399717;19;19914;-73
2023/10/24 07:54:52;;;;;;;2.78;0.98;;;16.90;99.90;;;;;;7404273;19;19914;-74
2023/10/24 07:57:18;;;;;;;2.67;1.00;;;16.90;99.90;;;;;;7397453;19;19919;-76
2023/10/24 07:59:44;;;;;;;3.65;0.88;;;16.80;99.90;;;;;;7380146;19;19914;-75
2023/10/24 08:02:09;;;;;;;6.32;1.00;;;16.90;99.90;;;;;;7387978;19;19926;-74
2023/10/24 08:04:37;;;;;;;3.03;0.68;;;16.90;99.90;;;;;;7389607;19;19922;-74
2023/10/24 08:07:03;;;;;;;2.22;0.60;;;16.90;99.90;;;;;;7387545;19;20261;-74
2023/10/24 08:09:29;;;;;;;2.50;0.95;;;17.70;99.90;;;;;;7368159;19;20263;-75
2023/10/24 08:11:55;;;;;;;;;;;19.30;93.50;;;;;;7397346;19;19914;-75
2023/10/24 08:14:21;;;;;;;2.67;0.75;;;19.70;89.40;;;;;;7397775;19;19926;-74
2023/10/24 08:16:47;;;;;;;2.67;0.95;;;20.10;86.60;;;;;;7395237;19;20254;-75
2023/10/24 08:19:13;;;;;;;2.72;1.30;;;20.10;83.70;;;;;;7390105;19;19922;-74
2023/10/24 08:21:38;;;;;;;2.33;0.73;;;20.20;83.70;;;;;;7387163;19;19914;-75
2023/10/24 08:24:05;;;;;;;2.10;0.95;;;20.50;79.40;;;;;;7375022;19;19931;-74
2023/10/24 08:26:30;;;;;;;2.35;0.82;;;20.70;76.30;;;;;;7395850;19;19914;-75
2023/10/24 08:28:56;;;;;;;2.50;1.08;;;20.50;74.90;;;;;;7393274;19;19941;-74
2023/10/24 08:31:22;;;;;;;1.70;0.82;;;21.50;73.10;;;;;;7389227;19;19934;-75
2023/10/24 08:33:47;;;;;;;3.75;1.00;;;21.90;68.30;;;;;;7399825;19;19915;-74
2023/10/24 08:36:13;;;;;;;5.32;1.50;;;21.30;71.70;;;;;;7389901;19;20590;-75
2023/10/24 08:38:39;;;;;;;2.50;1.20;;;22.00;67.80;;;;;;7399582;19;19938;-74
2023/10/24 08:41:05;;;;;;;2.88;0.80;;;22.10;65.40;;;;;;7392781;19;19919;-75
2023/10/24 08:43:32;;;;;;;5.47;2.40;;;21.70;66.30;;;;;;7391282;19;20323;-73
2023/10/24 08:45:59;;;;;;;4.65;1.73;;;21.30;68.50;;;;;;7402734;19;19918;-73
2023/10/24 08:48:25;;;;;;;3.95;1.13;;;21.70;68.00;;;;;;7402853;19;19934;-73
2023/10/24 08:50:52;;;;;;;;;;;21.40;67.50;;;;;;7406363;19;20440;-73
2023/10/24 08:53:17;;;;;;;3.45;0.85;;;21.20;69.00;;;;;;7395949;19;19922;-74
2023/10/24 08:55:51;;;;;;;2.10;0.90;;;21.70;68.30;;;;;;7404066;19;19941;-73
2023/10/24 08:58:20;;;;;;;2.08;0.80;;;20.80;69.30;;;;;;7399298;19;19921;-73
2023/10/24 09:00:47;;;;;;;3.58;0.95;;;20.80;70.60;;;;;;7380245;19;19934;-73
2023/10/24 09:03:16;;;;;;;3.10;0.80;;;20.90;71.70;;;;;;7396083;19;19946;-73
2023/10/24 09:05:44;;;;;;;2.78;1.00;;;21.20;70.60;;;;;;7401490;19;20778;-73
2023/10/24 09:08:12;;;;;;;2.95;0.93;;;20.50;71.30;;;;;;7396150;19;20011;-73
2023/10/24 09:10:38;;;;;;;4.50;0.90;;;19.90;75.20;;;;;;7396799;19;19920;-72
2023/10/24 09:13:07;;;;;;;2.45;0.75;;;19.90;78.60;;;;;;7392054;19;19926;-73
2023/10/24 09:15:37;;;;;;;4.00;0.68;;;19.80;77.50;;;;;;7374955;19;19915;-73
2023/10/24 09:18:06;;;;;;;2.05;0.82;;;19.30;81.80;;;;;;7401665;19;19925;-73
2023/10/24 09:20:33;;;;;;;2.38;0.70;;;19.20;84.60;;;;;;7407502;19;19986;-72
2023/10/24 09:23:11;;;;;;;3.20;0.85;;;19.20;86.00;;;;;;7404346;19;19923;-72
2023/10/24 09:25:37;;;;;;;3.17;0.70;;;19.30;82.20;;;;;;7390324;19;20602;-72
2023/10/24 09:28:16;;;;;;;;;;;19.40;82.50;;;;;;7395465;19;20004;-72
2023/10/24 09:30:44;;;;;;;2.10;0.82;;;19.40;81.00;;;;;;7394780;19;19921;-73
2023/10/24 09:33:10;;;;;;;3.47;0.85;;;19.50;78.50;;;;;;7396475;19;19918;-73
2023/10/24 09:35:37;;;;;;;1.90;0.63;;;19.60;77.00;;;;;;7405886;19;20619;-73
2023/10/24 09:38:06;;;;;;;2.10;0.73;;;19.90;75.70;;;;;;7405251;19;20397;-73
2023/10/24 09:40:37;;;;;;;2.55;0.80;;;19.90;74.20;;;;;;7390102;19;19986;-72
2023/10/24 09:43:27;;;;;;;2.10;0.60;;;20.00;74.00;;;;;;7389208;19;19954;-72
2023/10/24 09:45:56;;;;;;;3.30;0.73;;;20.10;72.90;;;;;;7396011;19;19918;-73
2023/10/24 09:48:23;;;;;;;4.93;0.75;;;20.40;71.00;;;;;;7403685;19;20335;-73
2023/10/24 09:50:51;;;;;;;2.50;0.70;;;20.50;70.80;;;;;;7386715;19;19914;-72
2023/10/24 09:53:21;;;;;;;2.42;0.80;;;20.40;69.20;;;;;;7397298;19;19939;-72
2023/10/24 09:55:50;;;;;;;3.13;0.80;;;20.20;65.20;;;;;;7377778;19;19926;-73
2023/10/24 09:58:18;;;;;;;3.60;1.05;;;20.80;64.60;;;;;;7370241;19;19919;-74
2023/10/24 10:00:45;;;;;;;3.13;0.82;;;20.80;64.40;;;;;;7397259;19;19921;-71
2023/10/24 10:03:11;;;;;;;3.15;0.80;;;21.30;63.10;;;;;;7400351;19;19919;-73
2023/10/24 10:05:38;;;;;;;1.88;0.80;;;21.00;61.00;;;;;;7403849;19;19925;-72
2023/10/24 10:08:07;;;;;;;3.58;0.88;;;21.50;59.70;;;;;;7406381;19;20635;-74
2023/10/24 10:10:36;;;;;;;2.67;0.77;;;21.10;59.20;;;;;;7403418;19;19914;-73
2023/10/24 10:13:07;;;;;;;2.50;0.55;;;21.20;57.60;;;;;;7405006;19;19933;-72
2023/10/24 10:15:47;;;;;;;1.52;0.80;;;21.50;56.80;;;;;;7403939;19;19920;-72
2023/10/24 10:18:32;;;;;;;3.15;1.15;;;21.40;56.80;;;;;;7402339;19;19915;-73
2023/10/24 10:21:18;;;;;;;1.38;0.63;;;21.20;57.10;;;;;;7407189;19;19927;-74
2023/10/24 10:24:11;;;;;;;3.60;0.93;;;21.40;55.40;;;;;;7402280;19;19914;-73
2023/10/24 10:27:11;;;;;;;2.22;0.98;;;21.30;55.50;;;;;;7401023;19;19926;-72
2023/10/24 10:29:58;;;;;;;6.13;1.33;;;21.70;55.40;;;;;;7399365;19;19978;-73
2023/10/24 10:32:44;;;;;;;3.17;0.75;;;22.10;51.50;;;;;;7400021;19;19918;-73
2023/10/24 10:35:12;;;;;;;1.08;0.68;;;22.10;50.10;;;;;;7379956;19;20042;-72
2023/10/24 10:37:39;;;;;;;1.65;0.98;;;21.70;49.70;;;;;;7401932;19;19953;-72
2023/10/24 10:40:23;;;;;;;4.57;0.73;;;21.80;49.40;;;;;;7402077;19;20681;-73
2023/10/24 10:42:52;;;;;;;1.85;0.57;;;22.00;48.10;;;;;;7406382;19;20267;-73
2023/10/24 10:45:29;;;;;;;1.90;0.82;;;22.10;46.60;;;;;;7401250;19;19974;-74
2023/10/24 10:47:59;;;;;;;1.23;0.60;;;22.00;46.00;;;;;;7402448;19;20259;-74
2023/10/24 10:50:30;;;;;;;1.50;0.43;;;22.30;45.60;;;;;;7402999;19;19926;-74
2023/10/24 10:53:03;;;;;;;2.83;0.60;;;22.30;44.70;;;;;;7406389;19;19926;-74
2023/10/24 10:55:52;;;;;;;3.00;0.80;;;22.40;45.70;;;;;;7392756;19;19910;-74
2023/10/24 10:58:54;;;;;;;2.17;0.80;;;22.90;44.60;;;;;;7389436;19;19922;-73
2023/10/24 11:01:54;;;;;;;2.03;1.00;;;22.90;41.90;;;;;;7396037;19;19907;-73
2023/10/24 11:04:20;;;;;;;1.77;1.30;;;23.10;41.80;;;;;;7394200;19;19914;-73
2023/10/24 11:06:53;;;;;;;2.03;0.70;;;22.60;41.30;;;;;;7395907;19;19910;-73
2023/10/24 11:09:20;;;;;;;2.45;0.80;;;22.30;41.50;;;;;;7396878;19;19943;-74
2023/10/24 11:11:47;;;;;;;3.67;1.10;;;22.20;40.60;;;;;;7398849;19;19942;-73
2023/10/24 11:14:16;;;;;;;2.63;0.90;;;22.90;41.20;;;;;;7399602;19;19946;-73
2023/10/24 11:16:43;;;;;;;2.83;0.85;;;22.60;39.80;;;;;;7395773;19;19915;-72
2023/10/24 11:19:22;;;;;;;1.95;0.57;;;22.90;38.90;;;;;;7403355;19;19915;-73
2023/10/24 11:21:50;;;;;;;1.67;0.70;;;23.30;37.00;;;;;;7400109;19;19918;-73
2023/10/24 11:24:22;;;;;;;3.28;1.02;;;22.70;37.60;;;;;;7404785;19;19939;-73
2023/10/24 11:26:58;;;;;;;2.95;1.50;;;23.10;37.30;;;;;;7387262;19;20635;-73
2023/10/24 11:29:25;;;;;;;2.80;1.00;;;23.30;36.90;;;;;;7405061;19;19938;-73
2023/10/24 11:31:51;;;;;;;2.00;1.02;;;23.80;35.40;;;;;;7397949;19;19918;-73
2023/10/24 11:34:18;;;;;;;2.88;0.93;;;23.90;34.70;;;;;;7377786;19;20343;-75
2023/10/24 11:36:45;;;;;;;1.55;0.73;;;23.70;34.00;;;;;;7390029;19;19935;-74
2023/10/24 11:39:16;;;;;;;2.97;1.23;;;23.60;32.90;;;;;;7396797;19;19915;-74
2023/10/24 11:41:45;;;;;;;1.73;0.82;;;23.80;31.70;;;;;;7402686;19;19950;-74
2023/10/24 11:44:17;;;;;;;2.55;1.30;;;23.10;32.00;;;;;;7400462;19;19922;-74
2023/10/24 11:46:44;;;;;;;3.15;1.10;;;23.20;33.40;;;;;;7388434;19;19915;-75
2023/10/24 11:49:11;;;;;;;4.35;1.30;;;23.50;31.70;;;;;;7379323;19;19918;-74
2023/10/24 11:51:37;;;;;;;4.20;1.23;;;24.30;31.50;;;;;;7389135;19;19925;-74
2023/10/24 11:54:05;;;;;;;2.13;0.95;;;24.10;29.90;;;;;;7389862;19;19922;-74
2023/10/24 11:56:32;;;;;;;2.60;0.88;;;24.30;28.50;;;;;;7388940;19;19915;-74
2023/10/24 11:58:59;;;;;;;3.28;0.93;;;24.60;29.50;;;;;;7400142;19;20384;-74
2023/10/24 12:01:29;;;;;;;1.77;0.73;;;24.50;28.60;;;;;;7393834;19;19915;-74
2023/10/24 12:03:56;;;;;;;2.05;1.02;;;24.80;28.10;;;;;;7385343;19;20359;-75
2023/10/24 12:06:23;;;;;;;1.88;1.10;;;24.00;27.50;;;;;;7390478;19;19978;-75
2023/10/24 12:08:49;;;;;;;2.80;0.93;;;23.50;28.40;;;;;;7387907;19;20363;-76
2023/10/24 12:11:15;;;;;;;4.35;1.13;;;22.50;29.80;;;;;;7392629;19;19922;-74
2023/10/24 12:13:41;;;;;;;;;;;22.70;30.00;;;;;;7378030;19;19911;-75
2023/10/24 12:16:07;;;;;;;1.73;0.82;;;23.80;26.80;;;;;;7396207;19;20252;-76
2023/10/24 12:18:34;;;;;;;1.20;0.63;;;23.90;24.70;;;;;;7400568;19;20314;-75
2023/10/24 12:20:59;;;;;;;;;;;24.40;23.40;;;;;;7397749;19;19914;-72
2023/10/24 12:23:26;;;;;;;3.25;0.90;;;23.70;23.90;;;;;;7400140;19;19933;-73
2023/10/24 12:25:54;;;;;;;3.08;1.10;;;23.80;24.80;;;;;;7401630;19;19927;-74
2023/10/24 12:28:20;;;;;;;1.88;0.75;;;24.90;24.00;;;;;;7393186;19;19922;-75
2023/10/24 12:30:46;;;;;;;2.10;0.98;;;24.70;22.30;;;;;;7398424;19;19931;-74
2023/10/24 12:33:12;;;;;;;;;;;24.80;22.30;;;;;;7400840;19;19927;-75
2023/10/24 12:35:38;;;;;;;4.60;1.20;;;23.40;24.50;;;;;;7400032;19;19931;-74
2023/10/24 12:38:05;;;;;;;2.72;0.75;;;24.00;24.50;;;;;;7396388;19;19946;-75
2023/10/24 12:40:30;;;;;;;2.05;0.85;;;23.30;23.80;;;;;;7396339;19;19915;-74
2023/10/24 12:42:57;;;;;;;1.65;0.73;;;24.30;22.50;;;;;;7398703;19;20320;-75
2023/10/24 12:45:24;;;;;;;3.80;0.75;;;24.30;21.40;;;;;;7397750;19;19950;-74
2023/10/24 12:47:51;;;;;;;2.92;1.00;;;24.60;22.10;;;;;;7395916;19;19919;-74
2023/10/24 12:50:17;;;;;;;2.70;1.50;;;24.70;21.80;;;;;;7395715;19;19930;-74
2023/10/24 12:52:43;;;;;;;2.25;0.80;;;24.50;21.30;;;;;;7397097;19;19950;-74